createdAt,value
2023-01-28T00:01:09.830Z,-2.70
2023-01-28T00:03:37.027Z,-2.70
2023-01-28T00:06:14.941Z,-2.70
2023-01-28T00:08:42.128Z,-2.60
2023-01-28T00:11:12.193Z,-2.70
2023-01-28T00:13:39.474Z,-2.60
2023-01-28T00:16:11.453Z,-2.60
2023-01-28T00:18:38.595Z,-2.60
2023-01-28T00:21:06.848Z,-2.60
2023-01-28T00:23:36.929Z,-2.60
2023-01-28T00:26:07.082Z,-2.60
2023-01-28T00:28:35.095Z,-2.60
2023-01-28T00:31:18.313Z,-2.70
2023-01-28T00:33:47.593Z,-2.70
2023-01-28T00:36:15.693Z,-2.70
2023-01-28T00:38:43.217Z,-2.70
2023-01-28T00:41:11.595Z,-2.70
2023-01-28T00:43:40.131Z,-2.70
2023-01-28T00:46:08.390Z,-2.70
2023-01-28T00:48:37.277Z,-2.80
2023-01-28T00:51:07.467Z,-2.80
2023-01-28T00:53:36.369Z,-2.70
2023-01-28T00:56:05.763Z,-2.70
2023-01-28T00:58:33.548Z,-2.70
2023-01-28T01:01:18.839Z,-2.60
2023-01-28T01:03:46.580Z,-2.70
2023-01-28T01:06:15.766Z,-2.70
2023-01-28T01:08:43.043Z,-2.70
2023-01-28T01:11:11.779Z,-2.70
2023-01-28T01:13:39.111Z,-2.80
2023-01-28T01:16:10.053Z,-2.70
2023-01-28T01:18:41.915Z,-2.70
2023-01-28T01:21:11.341Z,-2.80
2023-01-28T01:23:38.648Z,-2.80
2023-01-28T01:26:06.517Z,-2.70
2023-01-28T01:28:33.748Z,-2.70
2023-01-28T01:31:14.897Z,-2.70
2023-01-28T01:33:43.121Z,-2.70
2023-01-28T01:36:11.400Z,-2.70
2023-01-28T01:38:38.866Z,-2.70
2023-01-28T01:41:08.766Z,-2.70
2023-01-28T01:43:51.685Z,-2.70
2023-01-28T01:46:25.121Z,-2.70
2023-01-28T01:48:53.426Z,-2.70
2023-01-28T01:51:25.558Z,-2.70
2023-01-28T01:53:55.952Z,-2.70
2023-01-28T01:56:30.633Z,-2.70
2023-01-28T01:58:58.554Z,-2.70
2023-01-28T02:01:29.462Z,-2.70
2023-01-28T02:04:04.320Z,-2.80
2023-01-28T02:06:32.273Z,-2.70
2023-01-28T02:08:59.238Z,-2.70
2023-01-28T02:11:30.525Z,-2.70
2023-01-28T02:14:00.681Z,-2.70
2023-01-28T02:16:29.383Z,-2.70
2023-01-28T02:18:56.248Z,-2.70
2023-01-28T02:21:41.579Z,-2.70
2023-01-28T02:24:25.302Z,-2.70
2023-01-28T02:27:27.864Z,-2.70
2023-01-28T02:30:15.820Z,-2.70
2023-01-28T02:33:03.853Z,-2.70
2023-01-28T02:35:44.703Z,-2.70
2023-01-28T02:38:19.502Z,-2.70
2023-01-28T02:41:05.722Z,-2.70
2023-01-28T02:43:38.774Z,-2.70
2023-01-28T02:46:46.425Z,-2.70
2023-01-28T02:49:18.662Z,-2.70
2023-01-28T02:51:51.371Z,-2.70
2023-01-28T02:54:38.550Z,-2.70
2023-01-28T02:57:14.565Z,-2.70
2023-01-28T02:59:50.421Z,-2.70
2023-01-28T03:02:36.781Z,-2.60
2023-01-28T03:05:20.426Z,-2.70
2023-01-28T03:07:49.535Z,-2.70
2023-01-28T03:10:21.032Z,-2.80
2023-01-28T03:13:10.578Z,-2.70
2023-01-28T03:16:01.102Z,-2.80
2023-01-28T03:18:58.692Z,-2.80
2023-01-28T03:21:53.530Z,-2.70
2023-01-28T03:24:59.411Z,-2.70
2023-01-28T03:27:52.580Z,-2.70
2023-01-28T03:30:53.326Z,-2.70
2023-01-28T03:33:50.440Z,-2.70
2023-01-28T03:36:37.515Z,-2.70
2023-01-28T03:39:05.460Z,-2.70
2023-01-28T03:41:32.731Z,-2.60
2023-01-28T03:44:18.249Z,-2.60
2023-01-28T03:46:48.709Z,-2.70
2023-01-28T03:49:18.457Z,-2.70
2023-01-28T03:51:46.323Z,-2.60
2023-01-28T03:54:13.577Z,-2.60
2023-01-28T03:56:41.258Z,-2.60
2023-01-28T03:59:08.461Z,-2.60
2023-01-28T04:01:36.953Z,-2.60
2023-01-28T04:04:04.020Z,-2.50
2023-01-28T04:06:31.107Z,-2.60
2023-01-28T04:09:16.482Z,-2.60
2023-01-28T04:11:50.959Z,-2.60
2023-01-28T04:14:25.299Z,-2.70
2023-01-28T04:17:07.519Z,-2.70
2023-01-28T04:19:37.389Z,-2.70
2023-01-28T04:22:08.148Z,-2.70
2023-01-28T04:24:35.409Z,-2.70
2023-01-28T04:27:04.823Z,-2.70
2023-01-28T04:29:31.996Z,-2.70
2023-01-28T04:32:11.709Z,-2.70
2023-01-28T04:35:03.952Z,-2.70
2023-01-28T04:37:51.184Z,-2.70
2023-01-28T04:40:32.223Z,-2.70
2023-01-28T04:43:07.374Z,-2.70
2023-01-28T04:45:48.730Z,-2.60
2023-01-28T04:48:36.659Z,-2.70
2023-01-28T04:51:26.613Z,-2.60
2023-01-28T04:54:09.185Z,-2.70
2023-01-28T04:56:37.177Z,-2.70
2023-01-28T04:59:04.560Z,-2.70
2023-01-28T05:01:35.835Z,-2.70
2023-01-28T05:04:05.770Z,-2.70
2023-01-28T05:06:36.133Z,-2.70
2023-01-28T05:09:09.405Z,-2.70
2023-01-28T05:11:39.028Z,-2.70
2023-01-28T05:14:07.698Z,-2.70
2023-01-28T05:16:54.982Z,-2.70
2023-01-28T05:19:21.987Z,-2.60
2023-01-28T05:21:48.889Z,-2.60
2023-01-28T05:24:27.849Z,-2.60
2023-01-28T05:26:57.234Z,-2.60
2023-01-28T05:29:24.139Z,-2.60
2023-01-28T05:31:51.044Z,-2.60
2023-01-28T05:34:17.987Z,-2.70
2023-01-28T05:36:45.277Z,-2.60
2023-01-28T05:39:26.629Z,-2.60
2023-01-28T05:41:53.512Z,-2.50
2023-01-28T05:44:20.342Z,-2.50
2023-01-28T05:47:07.707Z,-2.60
2023-01-28T05:50:00.200Z,-2.60
2023-01-28T05:52:59.550Z,-2.50
2023-01-28T05:55:32.255Z,-2.60
2023-01-28T05:57:59.315Z,-2.50
2023-01-28T06:00:27.057Z,-2.50
2023-01-28T06:02:54.158Z,-2.50
2023-01-28T06:05:21.562Z,-2.50
2023-01-28T06:07:48.835Z,-2.50
2023-01-28T06:10:19.835Z,-2.40
2023-01-28T06:12:47.379Z,-2.40
2023-01-28T06:15:33.301Z,-2.40
2023-01-28T06:18:12.857Z,-2.40
2023-01-28T06:20:40.154Z,-2.50
2023-01-28T06:23:07.073Z,-2.40
2023-01-28T06:25:33.989Z,-2.40
2023-01-28T06:28:06.249Z,-2.40
2023-01-28T06:30:33.345Z,-2.40
2023-01-28T06:33:00.207Z,-2.40
2023-01-28T06:35:27.380Z,-2.40
2023-01-28T06:37:54.409Z,-2.40
2023-01-28T06:40:23.072Z,-2.40
2023-01-28T06:42:49.959Z,-2.30
2023-01-28T06:45:17.007Z,-2.40
2023-01-28T06:47:43.965Z,-2.40
2023-01-28T06:50:11.503Z,-2.40
2023-01-28T06:52:38.318Z,-2.50
2023-01-28T06:55:05.731Z,-2.40
2023-01-28T06:57:32.643Z,-2.40
2023-01-28T06:59:59.489Z,-2.40
2023-01-28T07:02:27.730Z,-2.30
2023-01-28T07:04:54.674Z,-2.40
2023-01-28T07:07:21.717Z,-2.40
2023-01-28T07:09:48.963Z,-2.30
2023-01-28T07:12:15.812Z,-2.30
2023-01-28T07:14:43.027Z,-2.40
2023-01-28T07:17:14.236Z,-2.30
2023-01-28T07:19:42.261Z,-2.30
2023-01-28T07:22:11.185Z,-2.30
2023-01-28T07:24:40.164Z,-2.30
2023-01-28T07:27:07.333Z,-2.30
2023-01-28T07:29:36.285Z,-2.20
2023-01-28T07:32:05.455Z,-2.20
2023-01-28T07:34:33.133Z,-2.20
2023-01-28T07:37:03.516Z,-2.30
2023-01-28T07:39:35.563Z,-2.20
2023-01-28T07:42:03.919Z,-2.20
2023-01-28T07:44:38.796Z,-2.20
2023-01-28T07:47:07.259Z,-2.20
2023-01-28T07:49:39.749Z,-2.20
2023-01-28T07:52:08.261Z,-2.20
2023-01-28T07:54:35.188Z,-2.20
2023-01-28T07:57:02.178Z,-2.20
2023-01-28T07:59:29.326Z,-2.20
2023-01-28T08:01:56.304Z,-2.30
2023-01-28T08:04:23.298Z,-2.20
2023-01-28T08:06:52.323Z,-2.20
2023-01-28T08:09:19.238Z,-2.20
2023-01-28T08:11:46.111Z,-2.20
2023-01-28T08:14:13.038Z,-2.20
2023-01-28T08:16:39.930Z,-2.10
2023-01-28T08:19:06.843Z,-2.20
2023-01-28T08:21:37.074Z,-2.10
2023-01-28T08:24:04.416Z,-2.10
2023-01-28T08:26:31.263Z,-2.10
2023-01-28T08:28:58.163Z,-2.00
2023-01-28T08:31:27.050Z,-2.00
2023-01-28T08:33:54.052Z,-2.00
2023-01-28T08:36:21.068Z,-2.00
2023-01-28T08:38:54.791Z,-2.00
2023-01-28T08:41:22.669Z,-1.90
2023-01-28T08:43:49.932Z,-2.00
2023-01-28T08:46:17.415Z,-1.90
2023-01-28T08:48:52.193Z,-1.90
2023-01-28T08:51:19.094Z,-1.80
2023-01-28T08:53:45.972Z,-1.80
2023-01-28T08:56:14.350Z,-1.80
2023-01-28T08:58:41.720Z,-1.80
2023-01-28T09:01:08.601Z,-1.70
2023-01-28T09:03:36.270Z,-1.60
2023-01-28T09:06:05.040Z,-1.60
2023-01-28T09:08:32.265Z,-1.50
2023-01-28T09:10:59.661Z,-1.50
2023-01-28T09:13:27.323Z,-1.50
2023-01-28T09:15:54.337Z,-1.50
2023-01-28T09:18:21.419Z,-1.40
2023-01-28T09:20:48.354Z,-1.40
2023-01-28T09:23:15.342Z,-1.30
2023-01-28T09:25:42.511Z,-1.30
2023-01-28T09:28:09.843Z,-1.30
2023-01-28T09:30:38.254Z,-1.30
2023-01-28T09:33:05.744Z,-1.20
2023-01-28T09:35:36.961Z,-1.20
2023-01-28T09:38:04.827Z,-1.10
2023-01-28T09:40:38.272Z,-1.00
2023-01-28T09:43:12.795Z,-0.90
2023-01-28T09:45:50.820Z,-0.90
2023-01-28T09:48:21.763Z,-0.90
2023-01-28T09:50:52.216Z,-0.80
2023-01-28T09:53:31.034Z,-0.70
2023-01-28T09:56:05.502Z,-0.60
2023-01-28T09:58:32.765Z,-0.30
2023-01-28T10:01:24.286Z,-0.10
2023-01-28T10:03:53.919Z,0.00
2023-01-28T10:06:50.002Z,0.10
2023-01-28T10:09:25.277Z,0.00
2023-01-28T10:11:58.595Z,-0.10
2023-01-28T10:14:43.624Z,0.00
2023-01-28T10:17:28.771Z,-0.10
2023-01-28T10:20:22.994Z,-0.30
2023-01-28T10:23:10.192Z,-0.40
2023-01-28T10:25:37.595Z,-0.40
2023-01-28T10:28:21.628Z,-0.40
2023-01-28T10:30:49.443Z,-0.30
2023-01-28T10:33:28.694Z,-0.20
2023-01-28T10:35:57.792Z,-0.10
2023-01-28T10:38:26.983Z,-0.10
2023-01-28T10:40:57.821Z,-0.50
2023-01-28T10:43:28.803Z,-0.30
2023-01-28T10:46:14.475Z,-0.10
2023-01-28T10:49:12.349Z,-0.10
2023-01-28T10:51:43.391Z,-0.20
2023-01-28T10:54:25.689Z,-0.10
2023-01-28T10:56:58.207Z,-0.10
2023-01-28T10:59:34.590Z,-0.10
2023-01-28T11:02:06.531Z,-0.10
2023-01-28T11:04:36.749Z,-0.10
2023-01-28T11:07:16.127Z,0.00
2023-01-28T11:09:49.987Z,0.10
2023-01-28T11:12:22.853Z,0.10
2023-01-28T11:14:58.073Z,0.10
2023-01-28T11:17:29.287Z,0.10
2023-01-28T11:19:59.816Z,0.00
2023-01-28T11:22:39.886Z,0.10
2023-01-28T11:25:18.244Z,0.10
2023-01-28T11:27:50.081Z,0.40
2023-01-28T11:30:24.234Z,0.30
2023-01-28T11:33:04.540Z,0.30
2023-01-28T11:35:32.331Z,0.30
2023-01-28T11:38:00.461Z,0.40
2023-01-28T11:40:28.616Z,0.30
2023-01-28T11:43:00.538Z,0.40
2023-01-28T11:45:48.040Z,0.30
2023-01-28T11:48:33.261Z,0.20
2023-01-28T11:51:29.566Z,0.10
2023-01-28T11:54:07.143Z,-0.10
2023-01-28T11:56:39.829Z,-0.10
2023-01-28T11:59:27.630Z,-0.20
2023-01-28T12:02:18.884Z,-0.10
2023-01-28T12:05:01.083Z,-0.10
2023-01-28T12:07:37.175Z,0.00
2023-01-28T12:10:24.869Z,0.00
2023-01-28T12:13:16.119Z,0.00
2023-01-28T12:15:57.589Z,0.00
2023-01-28T12:18:39.108Z,-0.20
2023-01-28T12:21:10.664Z,-0.10
2023-01-28T12:23:59.997Z,-0.10
2023-01-28T12:26:45.851Z,-0.20
2023-01-28T12:29:25.030Z,-0.30
2023-01-28T12:32:05.245Z,-0.40
2023-01-28T12:34:48.657Z,-0.40
2023-01-28T12:37:49.027Z,-0.30
2023-01-28T12:40:53.970Z,-0.20
2023-01-28T12:43:46.141Z,-0.20
2023-01-28T12:46:18.760Z,-0.30
2023-01-28T12:48:52.413Z,-0.20
2023-01-28T12:51:33.098Z,-0.20
2023-01-28T12:54:29.248Z,-0.20
2023-01-28T12:56:57.790Z,-0.10
2023-01-28T12:59:39.423Z,-0.10
2023-01-28T13:02:12.605Z,0.10
2023-01-28T13:04:46.471Z,0.10
2023-01-28T13:07:35.883Z,0.00
2023-01-28T13:10:26.298Z,0.10
2023-01-28T13:12:54.666Z,0.00
2023-01-28T13:15:22.437Z,-0.10
2023-01-28T13:17:59.879Z,-0.10
2023-01-28T13:20:51.456Z,-0.10
2023-01-28T13:23:31.309Z,-0.10
2023-01-28T13:26:10.583Z,-0.20
2023-01-28T13:28:37.632Z,-0.20
2023-01-28T13:31:13.357Z,-0.30
2023-01-28T13:33:41.902Z,-0.20
2023-01-28T13:36:29.142Z,-0.20
2023-01-28T13:39:06.935Z,-0.20
2023-01-28T13:41:42.930Z,-0.20
2023-01-28T13:44:27.089Z,-0.20
2023-01-28T13:46:56.826Z,-0.20
2023-01-28T13:49:39.358Z,-0.20
2023-01-28T13:52:13.302Z,-0.30
2023-01-28T13:54:55.152Z,-0.30
2023-01-28T13:57:34.105Z,-0.20
2023-01-28T14:00:32.982Z,-0.30
2023-01-28T14:03:21.083Z,-0.30
2023-01-28T14:06:20.420Z,-0.40
2023-01-28T14:08:59.516Z,-0.40
2023-01-28T14:12:12.350Z,-0.40
2023-01-28T14:15:06.573Z,-0.40
2023-01-28T14:17:42.657Z,-0.30
2023-01-28T14:20:22.652Z,-0.40
2023-01-28T14:22:50.431Z,-0.20
2023-01-28T14:26:04.296Z,-0.20
2023-01-28T14:29:11.504Z,-0.20
2023-01-28T14:31:39.422Z,-0.20
2023-01-28T14:34:15.375Z,-0.20
2023-01-28T14:36:45.101Z,-0.20
2023-01-28T14:39:28.288Z,-0.30
2023-01-28T14:41:59.202Z,-0.30
2023-01-28T14:44:41.461Z,-0.20
2023-01-28T14:47:28.215Z,-0.10
2023-01-28T14:50:10.161Z,-0.20
2023-01-28T14:53:04.841Z,-0.30
2023-01-28T14:56:01.995Z,-0.20
2023-01-28T14:58:50.400Z,-0.20
2023-01-28T15:01:31.846Z,-0.40
2023-01-28T15:03:59.366Z,-0.40
2023-01-28T15:06:34.552Z,-0.40
2023-01-28T15:09:09.819Z,-0.50
2023-01-28T15:11:39.730Z,-0.60
2023-01-28T15:14:16.428Z,-0.60
2023-01-28T15:16:48.898Z,-0.60
2023-01-28T15:19:16.657Z,-0.60
2023-01-28T15:21:45.801Z,-0.60
2023-01-28T15:24:17.136Z,-0.70
2023-01-28T15:26:48.575Z,-0.70
2023-01-28T15:29:32.689Z,-0.70
2023-01-28T15:32:00.537Z,-0.80
2023-01-28T15:34:30.606Z,-0.80
2023-01-28T15:36:58.679Z,-0.80
2023-01-28T15:39:26.954Z,-0.80
2023-01-28T15:42:07.073Z,-0.80
2023-01-28T15:44:38.001Z,-0.80
2023-01-28T15:47:40.704Z,-0.80
2023-01-28T15:50:18.035Z,-0.90
2023-01-28T15:52:46.277Z,-0.90
2023-01-28T15:55:39.519Z,-0.90
2023-01-28T15:58:17.463Z,-0.90
2023-01-28T16:00:45.631Z,-0.90
2023-01-28T16:03:20.577Z,-0.90
2023-01-28T16:06:09.629Z,-0.90
2023-01-28T16:08:39.639Z,-0.90
2023-01-28T16:11:08.107Z,-1.00
2023-01-28T16:13:36.616Z,-1.00
2023-01-28T16:16:05.578Z,-1.00
2023-01-28T16:18:47.462Z,-1.00
2023-01-28T16:21:22.655Z,-1.00
2023-01-28T16:23:59.363Z,-1.00
2023-01-28T16:26:28.754Z,-1.00
2023-01-28T16:29:13.149Z,-1.10
2023-01-28T16:31:40.053Z,-1.10
2023-01-28T16:34:08.123Z,-1.10
2023-01-28T16:36:35.262Z,-1.00
2023-01-28T16:39:02.223Z,-1.00
2023-01-28T16:41:32.613Z,-1.00
2023-01-28T16:44:05.897Z,-1.10
2023-01-28T16:46:36.371Z,-1.00
2023-01-28T16:49:03.599Z,-1.00
2023-01-28T16:51:30.571Z,-1.00
2023-01-28T16:53:58.126Z,-1.00
2023-01-28T16:56:44.128Z,-1.00
2023-01-28T16:59:12.427Z,-1.00
2023-01-28T17:01:39.912Z,-1.80
2023-01-28T17:04:12.131Z,-1.10
2023-01-28T17:06:42.894Z,-1.10
2023-01-28T17:09:14.085Z,-1.10
2023-01-28T17:11:41.723Z,-1.10
2023-01-28T17:14:10.226Z,-1.10
2023-01-28T17:16:37.507Z,-1.00
2023-01-28T17:19:04.971Z,-1.00
2023-01-28T17:21:32.123Z,-1.00
2023-01-28T17:24:00.894Z,-1.00
2023-01-28T17:26:29.215Z,-1.00
2023-01-28T17:28:56.442Z,-1.00
2023-01-28T17:31:23.514Z,-1.00
2023-01-28T17:33:54.852Z,-1.00
2023-01-28T17:36:22.064Z,-1.00
2023-01-28T17:38:48.927Z,-1.00
2023-01-28T17:41:19.281Z,-1.00
2023-01-28T17:43:56.593Z,-1.00
2023-01-28T17:46:24.983Z,-1.00
2023-01-28T17:48:52.373Z,-1.10
2023-01-28T17:51:19.369Z,-1.10
2023-01-28T17:53:52.144Z,-1.10
2023-01-28T17:56:29.821Z,-1.10
2023-01-28T17:59:02.761Z,-1.00
2023-01-28T18:01:30.425Z,-1.00
2023-01-28T18:03:59.509Z,-1.10
2023-01-28T18:06:33.968Z,-1.10
2023-01-28T18:09:01.393Z,-1.10
2023-01-28T18:11:28.888Z,-1.10
2023-01-28T18:13:56.001Z,-1.20
2023-01-28T18:16:23.053Z,-1.20
2023-01-28T18:18:50.461Z,-1.10
2023-01-28T18:21:52.285Z,-1.10
2023-01-28T18:24:20.520Z,-1.20
2023-01-28T18:26:47.700Z,-1.20
2023-01-28T18:29:19.024Z,-1.20
2023-01-28T18:31:47.810Z,-1.20
2023-01-28T18:34:15.471Z,-1.20
2023-01-28T18:36:42.366Z,-1.20
2023-01-28T18:39:15.908Z,-1.20
2023-01-28T18:41:43.325Z,-1.20
2023-01-28T18:44:11.888Z,-1.20
2023-01-28T18:46:39.366Z,-1.20
2023-01-28T18:49:06.354Z,-1.30
2023-01-28T18:51:33.160Z,-1.30
2023-01-28T18:54:02.465Z,-1.30
2023-01-28T18:56:30.557Z,-1.30
2023-01-28T18:58:59.337Z,-1.30
2023-01-28T19:01:27.087Z,-1.30
2023-01-28T19:03:55.447Z,-1.30
2023-01-28T19:06:23.159Z,-1.40
2023-01-28T19:08:53.056Z,-1.30
2023-01-28T19:11:20.731Z,-1.30
2023-01-28T19:13:47.623Z,-1.40
2023-01-28T19:16:14.478Z,-1.40
2023-01-28T19:18:41.583Z,-1.40
2023-01-28T19:21:08.618Z,-1.40
2023-01-28T19:23:49.232Z,-1.40
2023-01-28T19:26:21.148Z,-1.40
2023-01-28T19:28:49.555Z,-1.30
2023-01-28T19:31:20.901Z,-1.30
2023-01-28T19:33:49.745Z,-1.30
2023-01-28T19:36:16.670Z,-1.30
2023-01-28T19:38:43.580Z,-1.30
2023-01-28T19:41:13.554Z,-1.20
2023-01-28T19:43:40.498Z,-1.20
2023-01-28T19:46:07.398Z,-1.20
2023-01-28T19:48:34.412Z,-1.20
2023-01-28T19:51:09.232Z,-1.20
2023-01-28T19:53:37.660Z,-1.20
2023-01-28T19:56:07.251Z,-1.20
2023-01-28T19:58:35.935Z,-1.10
2023-01-28T20:01:10.348Z,-1.20
2023-01-28T20:03:37.996Z,-1.10
2023-01-28T20:06:07.555Z,-1.10
2023-01-28T20:08:34.642Z,-1.10
2023-01-28T20:11:13.979Z,-1.10
2023-01-28T20:13:43.217Z,-1.10
2023-01-28T20:16:21.415Z,-1.20
2023-01-28T20:18:53.509Z,-1.30
2023-01-28T20:21:21.701Z,-1.20
2023-01-28T20:23:50.525Z,-1.20
2023-01-28T20:26:18.509Z,-1.10
2023-01-28T20:28:45.400Z,-1.20
2023-01-28T20:31:12.374Z,-1.10
2023-01-28T20:33:40.270Z,-1.20
2023-01-28T20:36:12.530Z,-1.20
2023-01-28T20:38:41.810Z,-1.30
2023-01-28T20:41:16.723Z,-1.30
2023-01-28T20:43:45.163Z,-1.20
2023-01-28T20:46:19.277Z,-1.20
2023-01-28T20:48:47.027Z,-1.10
2023-01-28T20:51:16.579Z,-1.10
2023-01-28T20:53:44.824Z,-1.10
2023-01-28T20:56:14.575Z,-1.10
2023-01-28T20:58:42.039Z,-1.20
2023-01-28T21:01:16.530Z,-1.20
2023-01-28T21:03:43.631Z,-1.20
2023-01-28T21:06:10.607Z,-1.20
2023-01-28T21:08:37.716Z,-1.20
2023-01-28T21:11:06.010Z,-1.10
2023-01-28T21:13:33.669Z,-1.20
2023-01-28T21:16:01.378Z,-1.20
2023-01-28T21:18:28.515Z,-1.10
2023-01-28T21:20:55.504Z,-1.10
2023-01-28T21:23:25.763Z,-1.10
2023-01-28T21:25:52.662Z,-1.10
2023-01-28T21:28:20.098Z,-1.00
2023-01-28T21:30:50.275Z,-1.10
2023-01-28T21:33:17.329Z,-1.10
2023-01-28T21:35:44.357Z,-1.10
2023-01-28T21:38:11.848Z,-1.10
2023-01-28T21:40:39.147Z,-1.10
2023-01-28T21:43:06.069Z,-1.10
2023-01-28T21:45:32.996Z,-1.10
2023-01-28T21:47:59.903Z,-1.10
2023-01-28T21:50:26.998Z,-1.20
2023-01-28T21:52:53.820Z,-1.10
2023-01-28T21:55:20.720Z,-1.20
2023-01-28T21:57:47.695Z,-1.20
2023-01-28T22:00:15.456Z,-1.30
2023-01-28T22:02:42.983Z,-1.20
2023-01-28T22:05:10.037Z,-1.20
2023-01-28T22:07:37.414Z,-1.20
2023-01-28T22:10:04.603Z,-1.20
2023-01-28T22:12:31.476Z,-1.30
2023-01-28T22:14:58.878Z,-1.30
2023-01-28T22:17:26.280Z,-1.20
2023-01-28T22:19:53.179Z,-1.20
2023-01-28T22:22:20.042Z,-1.20
2023-01-28T22:24:46.996Z,-1.30
2023-01-28T22:27:14.249Z,-1.30
2023-01-28T22:29:41.389Z,-1.20
2023-01-28T22:32:08.339Z,-1.20
2023-01-28T22:34:35.390Z,-1.20
2023-01-28T22:37:03.046Z,-1.30
2023-01-28T22:39:29.905Z,-1.30
2023-01-28T22:41:56.756Z,-1.30
2023-01-28T22:44:23.860Z,-1.20
2023-01-28T22:46:50.754Z,-1.20
2023-01-28T22:49:17.720Z,-1.30
2023-01-28T22:51:44.579Z,-1.30
2023-01-28T22:54:13.743Z,-1.30
2023-01-28T22:56:40.649Z,-1.40
2023-01-28T22:59:07.579Z,-1.40
2023-01-28T23:01:35.563Z,-1.40
2023-01-28T23:04:02.724Z,-1.40
2023-01-28T23:06:30.074Z,-1.40
2023-01-28T23:08:57.302Z,-1.40
2023-01-28T23:11:25.511Z,-1.40
2023-01-28T23:14:13.662Z,-1.40
2023-01-28T23:16:59.754Z,-1.40
2023-01-28T23:19:45.351Z,-1.50
2023-01-28T23:22:48.823Z,-1.40
2023-01-28T23:25:16.129Z,-1.60
2023-01-28T23:27:43.541Z,-1.60
2023-01-28T23:30:12.477Z,-1.50
2023-01-28T23:32:50.138Z,-1.50
2023-01-28T23:35:19.129Z,-1.60
2023-01-28T23:37:47.087Z,-1.60
2023-01-28T23:40:15.540Z,-1.50
2023-01-28T23:42:44.716Z,-1.50
2023-01-28T23:45:11.734Z,-1.50
2023-01-28T23:47:38.931Z,-1.50
2023-01-28T23:50:09.061Z,-1.50
2023-01-28T23:52:36.041Z,-1.50
2023-01-28T23:55:03.303Z,-1.50
2023-01-28T23:57:30.206Z,-1.60
2023-01-28T23:59:57.244Z,-1.60
